sensor_id;sensor_type;location;lat;lon;timestamp;P1;durP1;ratioP1;P2;durP2;ratioP2
75437;SDS011;64015;49.392;15.582;2023-04-01T00:01:49;1.23;;;0.40;;
75437;SDS011;64015;49.392;15.582;2023-04-01T00:05:13;3.67;;;0.70;;
75437;SDS011;64015;49.392;15.582;2023-04-01T00:08:39;1.92;;;0.70;;
75437;SDS011;64015;49.392;15.582;2023-04-01T00:12:03;2.85;;;0.73;;
75437;SDS011;64015;49.392;15.582;2023-04-01T00:15:28;2.50;;;0.50;;
75437;SDS011;64015;49.392;15.582;2023-04-01T00:18:52;1.10;;;0.30;;
75437;SDS011;64015;49.392;15.582;2023-04-01T00:22:16;2.75;;;0.63;;
75437;SDS011;64015;49.392;15.582;2023-04-01T00:25:42;2.63;;;0.70;;
75437;SDS011;64015;49.392;15.582;2023-04-01T00:29:07;3.28;;;0.82;;
75437;SDS011;64015;49.392;15.582;2023-04-01T00:32:33;2.15;;;0.65;;
75437;SDS011;64015;49.392;15.582;2023-04-01T00:36:05;1.52;;;0.80;;
75437;SDS011;64015;49.392;15.582;2023-04-01T00:39:30;4.00;;;0.55;;
75437;SDS011;64015;49.392;15.582;2023-04-01T00:42:59;2.20;;;0.55;;
75437;SDS011;64015;49.392;15.582;2023-04-01T00:46:39;2.70;;;0.70;;
75437;SDS011;64015;49.392;15.582;2023-04-01T00:50:04;3.03;;;0.57;;
75437;SDS011;64015;49.392;15.582;2023-04-01T00:53:34;1.88;;;0.77;;
75437;SDS011;64015;49.392;15.582;2023-04-01T00:59:29;3.67;;;0.80;;
75437;SDS011;64015;49.392;15.582;2023-04-01T01:01:58;2.75;;;0.77;;
75437;SDS011;64015;49.392;15.582;2023-04-01T01:04:43;2.30;;;0.80;;
75437;SDS011;64015;49.392;15.582;2023-04-01T01:13:29;1.33;;;0.50;;
75437;SDS011;64015;49.392;15.582;2023-04-01T01:18:33;1.60;;;0.55;;
75437;SDS011;64015;49.392;15.582;2023-04-01T01:29:53;2.10;;;0.50;;
75437;SDS011;64015;49.392;15.582;2023-04-01T01:37:27;0.88;;;0.30;;
75437;SDS011;64015;49.392;15.582;2023-04-01T01:40:55;4.28;;;0.50;;
75437;SDS011;64015;49.392;15.582;2023-04-01T01:44:22;2.13;;;0.70;;
75437;SDS011;64015;49.392;15.582;2023-04-01T01:47:48;2.63;;;0.50;;
75437;SDS011;64015;49.392;15.582;2023-04-01T01:51:16;1.33;;;0.40;;
75437;SDS011;64015;49.392;15.582;2023-04-01T01:54:48;2.05;;;0.40;;
75437;SDS011;64015;49.392;15.582;2023-04-01T01:58:16;0.70;;;0.40;;
75437;SDS011;64015;49.392;15.582;2023-04-01T02:01:44;3.15;;;0.70;;
75437;SDS011;64015;49.392;15.582;2023-04-01T02:05:14;1.90;;;0.40;;
75437;SDS011;64015;49.392;15.582;2023-04-01T02:08:45;2.35;;;0.35;;
75437;SDS011;64015;49.392;15.582;2023-04-01T02:12:12;1.42;;;0.40;;
75437;SDS011;64015;49.392;15.582;2023-04-01T02:16:09;2.97;;;0.50;;
75437;SDS011;64015;49.392;15.582;2023-04-01T02:19:43;1.33;;;0.40;;
75437;SDS011;64015;49.392;15.582;2023-04-01T02:23:10;2.03;;;0.55;;
75437;SDS011;64015;49.392;15.582;2023-04-01T02:26:37;1.23;;;0.40;;
75437;SDS011;64015;49.392;15.582;2023-04-01T02:30:02;3.20;;;0.73;;
75437;SDS011;64015;49.392;15.582;2023-04-01T02:33:28;1.38;;;0.30;;
75437;SDS011;64015;49.392;15.582;2023-04-01T02:36:52;0.80;;;0.30;;
75437;SDS011;64015;49.392;15.582;2023-04-01T02:40:18;2.15;;;0.50;;
75437;SDS011;64015;49.392;15.582;2023-04-01T02:43:42;2.05;;;0.50;;
75437;SDS011;64015;49.392;15.582;2023-04-01T02:47:07;4.28;;;0.70;;
75437;SDS011;64015;49.392;15.582;2023-04-01T02:50:31;2.28;;;1.30;;
75437;SDS011;64015;49.392;15.582;2023-04-01T02:53:55;2.50;;;1.20;;
75437;SDS011;64015;49.392;15.582;2023-04-01T02:57:20;2.88;;;1.20;;
75437;SDS011;64015;49.392;15.582;2023-04-01T03:00:45;4.45;;;1.42;;
75437;SDS011;64015;49.392;15.582;2023-04-01T03:04:09;5.97;;;1.63;;
75437;SDS011;64015;49.392;15.582;2023-04-01T03:07:33;3.35;;;1.50;;
75437;SDS011;64015;49.392;15.582;2023-04-01T03:10:57;3.63;;;1.42;;
75437;SDS011;64015;49.392;15.582;2023-04-01T03:14:22;5.03;;;2.13;;
75437;SDS011;64015;49.392;15.582;2023-04-01T03:17:46;5.30;;;1.92;;
75437;SDS011;64015;49.392;15.582;2023-04-01T03:20:12;2.63;;;1.58;;
75437;SDS011;64015;49.392;15.582;2023-04-01T03:22:39;4.05;;;1.42;;
75437;SDS011;64015;49.392;15.582;2023-04-01T03:25:05;2.70;;;1.27;;
75437;SDS011;64015;49.392;15.582;2023-04-01T03:27:33;5.03;;;1.73;;
75437;SDS011;64015;49.392;15.582;2023-04-01T03:30:01;2.50;;;1.35;;
75437;SDS011;64015;49.392;15.582;2023-04-01T03:32:27;2.05;;;1.00;;
75437;SDS011;64015;49.392;15.582;2023-04-01T03:34:53;3.55;;;1.20;;
75437;SDS011;64015;49.392;15.582;2023-04-01T03:37:19;2.70;;;1.02;;
75437;SDS011;64015;49.392;15.582;2023-04-01T03:40:44;3.25;;;1.20;;
75437;SDS011;64015;49.392;15.582;2023-04-01T03:43:10;2.97;;;1.40;;
75437;SDS011;64015;49.392;15.582;2023-04-01T03:45:47;3.28;;;1.30;;
75437;SDS011;64015;49.392;15.582;2023-04-01T03:48:14;4.18;;;1.40;;
75437;SDS011;64015;49.392;15.582;2023-04-01T03:50:40;2.60;;;1.35;;
75437;SDS011;64015;49.392;15.582;2023-04-01T03:53:06;3.50;;;1.40;;
75437;SDS011;64015;49.392;15.582;2023-04-01T03:55:32;2.10;;;1.08;;
75437;SDS011;64015;49.392;15.582;2023-04-01T03:58:56;6.68;;;1.65;;
75437;SDS011;64015;49.392;15.582;2023-04-01T04:02:21;2.80;;;1.00;;
75437;SDS011;64015;49.392;15.582;2023-04-01T04:05:46;2.05;;;1.08;;
75437;SDS011;64015;49.392;15.582;2023-04-01T04:09:10;2.60;;;0.85;;
75437;SDS011;64015;49.392;15.582;2023-04-01T04:12:34;2.50;;;0.73;;
75437;SDS011;64015;49.392;15.582;2023-04-01T04:15:37;2.88;;;0.88;;
75437;SDS011;64015;49.392;15.582;2023-04-01T04:18:03;3.00;;;0.90;;
75437;SDS011;64015;49.392;15.582;2023-04-01T04:20:29;2.28;;;1.02;;
75437;SDS011;64015;49.392;15.582;2023-04-01T04:22:55;2.08;;;0.73;;
75437;SDS011;64015;49.392;15.582;2023-04-01T04:25:20;0.90;;;0.50;;
75437;SDS011;64015;49.392;15.582;2023-04-01T04:27:59;2.28;;;0.82;;
75437;SDS011;64015;49.392;15.582;2023-04-01T04:30:25;3.10;;;0.55;;
75437;SDS011;64015;49.392;15.582;2023-04-01T04:32:51;1.70;;;0.57;;
75437;SDS011;64015;49.392;15.582;2023-04-01T04:35:16;2.38;;;0.85;;
75437;SDS011;64015;49.392;15.582;2023-04-01T04:37:42;2.58;;;0.80;;
75437;SDS011;64015;49.392;15.582;2023-04-01T04:40:08;2.17;;;0.70;;
75437;SDS011;64015;49.392;15.582;2023-04-01T04:42:33;1.42;;;0.43;;
75437;SDS011;64015;49.392;15.582;2023-04-01T04:44:59;3.13;;;0.73;;
75437;SDS011;64015;49.392;15.582;2023-04-01T04:47:25;2.55;;;0.47;;
75437;SDS011;64015;49.392;15.582;2023-04-01T04:49:50;1.88;;;0.40;;
75437;SDS011;64015;49.392;15.582;2023-04-01T04:52:16;2.63;;;0.55;;
75437;SDS011;64015;49.392;15.582;2023-04-01T04:54:42;1.10;;;0.40;;
75437;SDS011;64015;49.392;15.582;2023-04-01T04:57:07;1.42;;;0.70;;
75437;SDS011;64015;49.392;15.582;2023-04-01T04:59:33;2.33;;;0.52;;
75437;SDS011;64015;49.392;15.582;2023-04-01T05:01:59;1.40;;;0.40;;
75437;SDS011;64015;49.392;15.582;2023-04-01T05:04:25;1.13;;;0.43;;
75437;SDS011;64015;49.392;15.582;2023-04-01T05:06:50;6.13;;;1.13;;
75437;SDS011;64015;49.392;15.582;2023-04-01T05:09:17;2.63;;;0.47;;
75437;SDS011;64015;49.392;15.582;2023-04-01T05:11:42;3.30;;;0.82;;
75437;SDS011;64015;49.392;15.582;2023-04-01T05:14:12;6.32;;;0.63;;
75437;SDS011;64015;49.392;15.582;2023-04-01T05:16:41;2.20;;;0.60;;
75437;SDS011;64015;49.392;15.582;2023-04-01T05:19:06;1.52;;;0.68;;
75437;SDS011;64015;49.392;15.582;2023-04-01T05:21:32;2.25;;;0.52;;
75437;SDS011;64015;49.392;15.582;2023-04-01T05:23:58;2.70;;;0.80;;
75437;SDS011;64015;49.392;15.582;2023-04-01T05:26:23;1.25;;;0.43;;
75437;SDS011;64015;49.392;15.582;2023-04-01T05:28:49;1.80;;;0.32;;
75437;SDS011;64015;49.392;15.582;2023-04-01T05:31:16;1.85;;;0.45;;
75437;SDS011;64015;49.392;15.582;2023-04-01T05:33:42;1.50;;;0.40;;
75437;SDS011;64015;49.392;15.582;2023-04-01T05:36:11;2.40;;;0.63;;
75437;SDS011;64015;49.392;15.582;2023-04-01T05:38:39;6.68;;;0.93;;
75437;SDS011;64015;49.392;15.582;2023-04-01T05:41:05;2.47;;;0.60;;
75437;SDS011;64015;49.392;15.582;2023-04-01T05:43:31;2.70;;;0.40;;
75437;SDS011;64015;49.392;15.582;2023-04-01T05:45:57;2.30;;;0.40;;
75437;SDS011;64015;49.392;15.582;2023-04-01T05:48:23;3.45;;;0.50;;
75437;SDS011;64015;49.392;15.582;2023-04-01T05:50:48;0.88;;;0.30;;
75437;SDS011;64015;49.392;15.582;2023-04-01T05:53:15;2.58;;;0.70;;
75437;SDS011;64015;49.392;15.582;2023-04-01T05:55:40;2.88;;;0.63;;
75437;SDS011;64015;49.392;15.582;2023-04-01T05:58:06;3.28;;;0.68;;
75437;SDS011;64015;49.392;15.582;2023-04-01T06:00:32;4.28;;;1.15;;
75437;SDS011;64015;49.392;15.582;2023-04-01T06:02:58;1.40;;;0.50;;
75437;SDS011;64015;49.392;15.582;2023-04-01T06:05:26;2.58;;;0.77;;
75437;SDS011;64015;49.392;15.582;2023-04-01T06:07:58;4.22;;;0.52;;
75437;SDS011;64015;49.392;15.582;2023-04-01T06:16:01;2.63;;;0.50;;
75437;SDS011;64015;49.392;15.582;2023-04-01T06:18:52;0.65;;;0.30;;
75437;SDS011;64015;49.392;15.582;2023-04-01T06:32:06;2.25;;;0.50;;
75437;SDS011;64015;49.392;15.582;2023-04-01T06:49:02;2.80;;;0.45;;
75437;SDS011;64015;49.392;15.582;2023-04-01T06:51:36;3.08;;;0.50;;
75437;SDS011;64015;49.392;15.582;2023-04-01T06:54:14;2.42;;;0.60;;
75437;SDS011;64015;49.392;15.582;2023-04-01T06:56:44;0.95;;;0.38;;
75437;SDS011;64015;49.392;15.582;2023-04-01T06:59:15;4.45;;;1.52;;
75437;SDS011;64015;49.392;15.582;2023-04-01T07:01:49;2.97;;;0.95;;
75437;SDS011;64015;49.392;15.582;2023-04-01T07:04:29;1.05;;;0.40;;
75437;SDS011;64015;49.392;15.582;2023-04-01T07:06:59;1.63;;;0.45;;
75437;SDS011;64015;49.392;15.582;2023-04-01T07:09:35;1.38;;;0.30;;
75437;SDS011;64015;49.392;15.582;2023-04-01T07:12:12;2.40;;;0.77;;
75437;SDS011;64015;49.392;15.582;2023-04-01T07:14:45;1.30;;;0.40;;
75437;SDS011;64015;49.392;15.582;2023-04-01T07:17:16;4.35;;;0.63;;
75437;SDS011;64015;49.392;15.582;2023-04-01T07:20:01;1.58;;;0.45;;
75437;SDS011;64015;49.392;15.582;2023-04-01T07:22:40;3.03;;;0.43;;
75437;SDS011;64015;49.392;15.582;2023-04-01T07:25:13;0.95;;;0.30;;
75437;SDS011;64015;49.392;15.582;2023-04-01T07:27:42;4.80;;;0.73;;
75437;SDS011;64015;49.392;15.582;2023-04-01T07:30:15;1.38;;;0.50;;
75437;SDS011;64015;49.392;15.582;2023-04-01T07:32:55;1.67;;;0.38;;
75437;SDS011;64015;49.392;15.582;2023-04-01T07:35:42;1.63;;;0.40;;
75437;SDS011;64015;49.392;15.582;2023-04-01T07:41:40;0.88;;;0.30;;
75437;SDS011;64015;49.392;15.582;2023-04-01T07:49:43;1.02;;;0.32;;
75437;SDS011;64015;49.392;15.582;2023-04-01T07:52:25;1.73;;;0.40;;
75437;SDS011;64015;49.392;15.582;2023-04-01T07:57:51;1.40;;;0.32;;
75437;SDS011;64015;49.392;15.582;2023-04-01T08:00:20;0.50;;;0.15;;
75437;SDS011;64015;49.392;15.582;2023-04-01T08:02:58;3.67;;;0.40;;
75437;SDS011;64015;49.392;15.582;2023-04-01T08:05:57;1.98;;;0.75;;
75437;SDS011;64015;49.392;15.582;2023-04-01T08:08:42;0.95;;;0.40;;
75437;SDS011;64015;49.392;15.582;2023-04-01T08:17:12;3.40;;;0.60;;
75437;SDS011;64015;49.392;15.582;2023-04-01T08:22:45;2.30;;;0.50;;
75437;SDS011;64015;49.392;15.582;2023-04-01T08:25:19;1.35;;;0.25;;
75437;SDS011;64015;49.392;15.582;2023-04-01T08:33:27;2.50;;;0.75;;
75437;SDS011;64015;49.392;15.582;2023-04-01T08:36:03;1.63;;;0.50;;
75437;SDS011;64015;49.392;15.582;2023-04-01T08:38:57;1.40;;;0.45;;
75437;SDS011;64015;49.392;15.582;2023-04-01T08:47:50;0.70;;;0.22;;
75437;SDS011;64015;49.392;15.582;2023-04-01T08:55:04;1.42;;;0.50;;
75437;SDS011;64015;49.392;15.582;2023-04-01T09:14:16;1.80;;;0.40;;
75437;SDS011;64015;49.392;15.582;2023-04-01T09:27:36;0.85;;;0.28;;
75437;SDS011;64015;49.392;15.582;2023-04-01T09:31:09;1.65;;;0.57;;
75437;SDS011;64015;49.392;15.582;2023-04-01T09:43:55;1.83;;;0.43;;
75437;SDS011;64015;49.392;15.582;2023-04-01T10:23:51;3.10;;;0.57;;
75437;SDS011;64015;49.392;15.582;2023-04-01T10:31:03;1.35;;;0.50;;
75437;SDS011;64015;49.392;15.582;2023-04-01T10:37:55;0.88;;;0.20;;
75437;SDS011;64015;49.392;15.582;2023-04-01T10:48:09;2.05;;;0.40;;
75437;SDS011;64015;49.392;15.582;2023-04-01T10:53:46;0.93;;;0.20;;
75437;SDS011;64015;49.392;15.582;2023-04-01T10:56:44;1.52;;;0.30;;
75437;SDS011;64015;49.392;15.582;2023-04-01T10:59:20;0.80;;;0.50;;
75437;SDS011;64015;49.392;15.582;2023-04-01T11:10:21;1.00;;;0.32;;
75437;SDS011;64015;49.392;15.582;2023-04-01T11:13:32;1.25;;;0.40;;
75437;SDS011;64015;49.392;15.582;2023-04-01T11:30:32;0.82;;;0.30;;
75437;SDS011;64015;49.392;15.582;2023-04-01T11:52:24;2.05;;;0.65;;
75437;SDS011;64015;49.392;15.582;2023-04-01T11:57:56;0.75;;;0.38;;
75437;SDS011;64015;49.392;15.582;2023-04-01T12:03:42;2.22;;;0.50;;
75437;SDS011;64015;49.392;15.582;2023-04-01T12:09:16;3.28;;;0.73;;
75437;SDS011;64015;49.392;15.582;2023-04-01T12:15:00;2.40;;;0.63;;
75437;SDS011;64015;49.392;15.582;2023-04-01T12:34:44;4.53;;;0.90;;
75437;SDS011;64015;49.392;15.582;2023-04-01T13:12:51;0.90;;;0.30;;
75437;SDS011;64015;49.392;15.582;2023-04-01T13:18:04;1.23;;;0.40;;
75437;SDS011;64015;49.392;15.582;2023-04-01T13:29:33;1.52;;;0.50;;
75437;SDS011;64015;49.392;15.582;2023-04-01T13:40:39;2.15;;;0.73;;
75437;SDS011;64015;49.392;15.582;2023-04-01T13:57:30;2.78;;;0.88;;
75437;SDS011;64015;49.392;15.582;2023-04-01T14:00:10;2.03;;;1.00;;
75437;SDS011;64015;49.392;15.582;2023-04-01T14:03:19;2.10;;;0.60;;
75437;SDS011;64015;49.392;15.582;2023-04-01T14:19:57;2.03;;;1.10;;
75437;SDS011;64015;49.392;15.582;2023-04-01T14:47:22;1.40;;;0.50;;
75437;SDS011;64015;49.392;15.582;2023-04-01T14:50:09;1.30;;;0.40;;
75437;SDS011;64015;49.392;15.582;2023-04-01T14:52:40;1.95;;;0.40;;
75437;SDS011;64015;49.392;15.582;2023-04-01T14:55:31;1.08;;;0.47;;
75437;SDS011;64015;49.392;15.582;2023-04-01T15:11:33;1.30;;;0.60;;
75437;SDS011;64015;49.392;15.582;2023-04-01T15:14:30;2.45;;;0.80;;
75437;SDS011;64015;49.392;15.582;2023-04-01T15:17:14;2.33;;;0.82;;
75437;SDS011;64015;49.392;15.582;2023-04-01T15:22:55;1.33;;;0.43;;
75437;SDS011;64015;49.392;15.582;2023-04-01T15:28:19;2.10;;;0.90;;
75437;SDS011;64015;49.392;15.582;2023-04-01T15:39:24;0.70;;;0.20;;
75437;SDS011;64015;49.392;15.582;2023-04-01T15:56:19;0.95;;;0.50;;
75437;SDS011;64015;49.392;15.582;2023-04-01T15:59:07;2.03;;;0.50;;
75437;SDS011;64015;49.392;15.582;2023-04-01T16:12:49;2.30;;;0.85;;
75437;SDS011;64015;49.392;15.582;2023-04-01T16:21:04;2.13;;;0.65;;
75437;SDS011;64015;49.392;15.582;2023-04-01T16:23:47;1.70;;;0.50;;
75437;SDS011;64015;49.392;15.582;2023-04-01T16:37:10;4.82;;;1.70;;
75437;SDS011;64015;49.392;15.582;2023-04-01T16:45:31;7.07;;;2.92;;
75437;SDS011;64015;49.392;15.582;2023-04-01T16:48:11;2.65;;;0.70;;
75437;SDS011;64015;49.392;15.582;2023-04-01T16:50:44;2.53;;;0.82;;
75437;SDS011;64015;49.392;15.582;2023-04-01T16:56:16;2.65;;;0.73;;
75437;SDS011;64015;49.392;15.582;2023-04-01T16:59:04;1.92;;;0.70;;
75437;SDS011;64015;49.392;15.582;2023-04-01T17:01:43;3.50;;;1.20;;
75437;SDS011;64015;49.392;15.582;2023-04-01T17:04:24;3.83;;;1.35;;
75437;SDS011;64015;49.392;15.582;2023-04-01T17:06:53;3.08;;;1.23;;
75437;SDS011;64015;49.392;15.582;2023-04-01T17:12:03;1.77;;;0.82;;
75437;SDS011;64015;49.392;15.582;2023-04-01T17:20:26;3.53;;;1.10;;
75437;SDS011;64015;49.392;15.582;2023-04-01T17:39:33;3.10;;;0.90;;
75437;SDS011;64015;49.392;15.582;2023-04-01T17:42:10;1.77;;;0.70;;
75437;SDS011;64015;49.392;15.582;2023-04-01T17:44:59;4.15;;;1.38;;
75437;SDS011;64015;49.392;15.582;2023-04-01T17:47:36;3.28;;;1.52;;
75437;SDS011;64015;49.392;15.582;2023-04-01T17:50:34;4.22;;;1.45;;
75437;SDS011;64015;49.392;15.582;2023-04-01T17:55:51;6.15;;;2.88;;
75437;SDS011;64015;49.392;15.582;2023-04-01T18:06:39;4.55;;;1.25;;
75437;SDS011;64015;49.392;15.582;2023-04-01T18:17:40;2.20;;;1.30;;
75437;SDS011;64015;49.392;15.582;2023-04-01T18:20:30;3.92;;;1.20;;
75437;SDS011;64015;49.392;15.582;2023-04-01T18:23:06;3.15;;;1.10;;
75437;SDS011;64015;49.392;15.582;2023-04-01T18:25:46;2.58;;;1.02;;
75437;SDS011;64015;49.392;15.582;2023-04-01T18:42:03;5.57;;;2.88;;
75437;SDS011;64015;49.392;15.582;2023-04-01T18:48:06;3.30;;;1.08;;
75437;SDS011;64015;49.392;15.582;2023-04-01T18:58:43;2.35;;;0.90;;
75437;SDS011;64015;49.392;15.582;2023-04-01T19:04:03;2.55;;;1.17;;
75437;SDS011;64015;49.392;15.582;2023-04-01T19:09:14;3.47;;;1.50;;
75437;SDS011;64015;49.392;15.582;2023-04-01T19:11:50;2.95;;;1.35;;
75437;SDS011;64015;49.392;15.582;2023-04-01T19:19:48;3.35;;;1.20;;
75437;SDS011;64015;49.392;15.582;2023-04-01T19:27:53;2.80;;;1.05;;
75437;SDS011;64015;49.392;15.582;2023-04-01T19:36:16;2.28;;;0.98;;
75437;SDS011;64015;49.392;15.582;2023-04-01T19:38:54;3.45;;;1.27;;
75437;SDS011;64015;49.392;15.582;2023-04-01T19:47:12;3.35;;;1.20;;
75437;SDS011;64015;49.392;15.582;2023-04-01T19:52:35;2.17;;;1.02;;
75437;SDS011;64015;49.392;15.582;2023-04-01T20:01:03;4.15;;;1.42;;
75437;SDS011;64015;49.392;15.582;2023-04-01T20:17:01;2.92;;;1.30;;
75437;SDS011;64015;49.392;15.582;2023-04-01T20:19:38;2.30;;;0.70;;
75437;SDS011;64015;49.392;15.582;2023-04-01T20:25:13;3.28;;;1.00;;
75437;SDS011;64015;49.392;15.582;2023-04-01T20:33:06;2.00;;;0.93;;
75437;SDS011;64015;49.392;15.582;2023-04-01T20:36:03;1.80;;;0.50;;
75437;SDS011;64015;49.392;15.582;2023-04-01T20:44:11;2.60;;;0.80;;
75437;SDS011;64015;49.392;15.582;2023-04-01T20:46:43;2.30;;;0.82;;
75437;SDS011;64015;49.392;15.582;2023-04-01T21:00:40;1.35;;;0.60;;
75437;SDS011;64015;49.392;15.582;2023-04-01T21:05:59;1.88;;;0.80;;
75437;SDS011;64015;49.392;15.582;2023-04-01T21:08:45;2.17;;;0.73;;
75437;SDS011;64015;49.392;15.582;2023-04-01T21:17:11;1.35;;;0.50;;
75437;SDS011;64015;49.392;15.582;2023-04-01T21:19:55;1.25;;;0.40;;
75437;SDS011;64015;49.392;15.582;2023-04-01T21:22:53;0.88;;;0.32;;
75437;SDS011;64015;49.392;15.582;2023-04-01T21:25:31;2.08;;;0.30;;
75437;SDS011;64015;49.392;15.582;2023-04-01T21:35:44;2.10;;;0.70;;
75437;SDS011;64015;49.392;15.582;2023-04-01T21:46:26;1.38;;;0.52;;
75437;SDS011;64015;49.392;15.582;2023-04-01T21:49:31;2.88;;;0.50;;
75437;SDS011;64015;49.392;15.582;2023-04-01T22:10:58;1.20;;;0.40;;
75437;SDS011;64015;49.392;15.582;2023-04-01T22:13:35;1.58;;;0.60;;
75437;SDS011;64015;49.392;15.582;2023-04-01T22:21:41;1.48;;;0.50;;
75437;SDS011;64015;49.392;15.582;2023-04-01T22:24:20;1.55;;;0.60;;
75437;SDS011;64015;49.392;15.582;2023-04-01T22:27:21;1.65;;;0.40;;
75437;SDS011;64015;49.392;15.582;2023-04-01T22:30:07;1.45;;;0.60;;
75437;SDS011;64015;49.392;15.582;2023-04-01T22:32:42;1.45;;;0.52;;
75437;SDS011;64015;49.392;15.582;2023-04-01T22:35:33;1.65;;;0.60;;
75437;SDS011;64015;49.392;15.582;2023-04-01T22:43:51;2.53;;;0.80;;
75437;SDS011;64015;49.392;15.582;2023-04-01T22:51:51;2.08;;;0.70;;
75437;SDS011;64015;49.392;15.582;2023-04-01T22:57:47;1.35;;;0.73;;
75437;SDS011;64015;49.392;15.582;2023-04-01T23:05:26;1.90;;;0.63;;
75437;SDS011;64015;49.392;15.582;2023-04-01T23:07:56;1.45;;;0.63;;
75437;SDS011;64015;49.392;15.582;2023-04-01T23:10:42;3.15;;;0.95;;
75437;SDS011;64015;49.392;15.582;2023-04-01T23:13:16;2.15;;;1.00;;
75437;SDS011;64015;49.392;15.582;2023-04-01T23:15:45;2.17;;;1.10;;
75437;SDS011;64015;49.392;15.582;2023-04-01T23:18:21;3.72;;;1.63;;
75437;SDS011;64015;49.392;15.582;2023-04-01T23:23:38;2.53;;;1.38;;
75437;SDS011;64015;49.392;15.582;2023-04-01T23:28:37;3.85;;;1.58;;
75437;SDS011;64015;49.392;15.582;2023-04-01T23:31:35;3.30;;;1.48;;
75437;SDS011;64015;49.392;15.582;2023-04-01T23:34:04;2.95;;;1.60;;
75437;SDS011;64015;49.392;15.582;2023-04-01T23:36:37;4.35;;;1.58;;
75437;SDS011;64015;49.392;15.582;2023-04-01T23:39:10;4.40;;;1.80;;
75437;SDS011;64015;49.392;15.582;2023-04-01T23:42:06;2.92;;;1.45;;
75437;SDS011;64015;49.392;15.582;2023-04-01T23:44:38;3.10;;;2.00;;
75437;SDS011;64015;49.392;15.582;2023-04-01T23:47:04;2.85;;;1.50;;
75437;SDS011;64015;49.392;15.582;2023-04-01T23:49:36;2.25;;;1.00;;
75437;SDS011;64015;49.392;15.582;2023-04-01T23:52:24;3.63;;;1.63;;
75437;SDS011;64015;49.392;15.582;2023-04-01T23:54:53;4.97;;;1.10;;
75437;SDS011;64015;49.392;15.582;2023-04-01T23:57:26;3.55;;;1.70;;
